Time;durP1;ratioP1;P1;durP2;ratioP2;P2;SDS_P1;SDS_P2;PMS_P1;PMS_P2;Temp;Humidity;BMP_temperature;BMP_pressure;BME280_temperature;BME280_humidity;BME280_pressure;Samples;Min_cycle;Max_cycle;Signal;HPM_P1;HPM_P2
2021/06/20 00:01:58;;;;;;;;;34.50;33.00;;;;;;;;5008688;28;8813;-85
2021/06/20 00:04:26;;;;;;;;;37.00;34.25;;;;;;;;5006211;28;8890;-87
2021/06/20 00:06:54;;;;;;;;;39.75;34.50;;;;;;;;5004391;28;8899;-83
2021/06/20 00:09:21;;;;;;;;;34.75;33.50;;;;;;;;5004892;28;8876;-83
2021/06/20 00:11:50;;;;;;;;;38.25;33.50;;;;;;;;5006123;28;8963;-83
2021/06/20 00:14:18;;;;;;;;;35.50;33.00;;;;;;;;5005599;28;8958;-83
2021/06/20 00:16:46;;;;;;;;;38.25;35.25;;;;;;;;5008942;28;9618;-88
2021/06/20 00:19:15;;;;;;;;;40.00;34.00;;;;;;;;5006420;28;8878;-87
2021/06/20 00:21:43;;;;;;;;;41.25;34.75;;;;;;;;5012763;28;8861;-87
2021/06/20 00:24:10;;;;;;;;;40.50;35.00;;;;;;;;5016326;28;8964;-87
2021/06/20 00:26:38;;;;;;;;;39.25;33.50;;;;;;;;5005567;28;8986;-86
2021/06/20 00:29:05;;;;;;;;;42.00;37.00;;;;;;;;5005422;28;8872;-85
2021/06/20 00:31:33;;;;;;;;;38.25;31.00;;;;;;;;5003996;28;8819;-86
2021/06/20 00:34:00;;;;;;;;;36.25;32.75;;;;;;;;5004524;28;8971;-86
2021/06/20 00:36:29;;;;;;;;;39.00;33.75;;;;;;;;5004534;28;8966;-90
2021/06/20 00:38:56;;;;;;;;;37.00;33.50;;;;;;;;5013031;28;9011;-85
2021/06/20 00:41:23;;;;;;;;;29.25;29.00;;;;;;;;4996982;28;8940;-84
2021/06/20 00:43:51;;;;;;;;;34.00;30.25;;;;;;;;5007797;28;8998;-86
2021/06/20 00:46:18;;;;;;;;;31.00;27.75;;;;;;;;4998402;28;8880;-85
2021/06/20 00:48:47;;;;;;;;;25.25;22.00;;;;;;;;5003792;28;8856;-87
2021/06/20 00:51:15;;;;;;;;;27.25;23.75;;;;;;;;4997107;28;8863;-88
2021/06/20 00:53:44;;;;;;;;;27.00;26.00;;;;;;;;5005057;28;8892;-85
2021/06/20 00:56:12;;;;;;;;;28.00;26.00;;;;;;;;5005531;28;8868;-89
2021/06/20 00:58:41;;;;;;;;;28.75;26.50;;;;;;;;5005358;28;8886;-92
2021/06/20 01:01:10;;;;;;;;;24.25;23.50;;;;;;;;5005751;28;8823;-92
2021/06/20 01:03:37;;;;;;;;;23.00;22.75;;;;;;;;5006563;28;8865;-88
2021/06/20 01:06:05;;;;;;;;;29.25;25.50;;;;;;;;5011584;28;8991;-94
2021/06/20 01:08:32;;;;;;;;;27.50;27.00;;;;;;;;5003264;28;8978;-88
2021/06/20 01:11:01;;;;;;;;;25.75;23.50;;;;;;;;5001531;28;8969;-91
2021/06/20 01:13:28;;;;;;;;;21.75;21.75;;;;;;;;5005500;28;8857;-89
2021/06/20 01:15:56;;;;;;;;;19.25;18.00;;;;;;;;5003691;28;8880;-86
2021/06/20 01:18:23;;;;;;;;;19.50;17.50;;;;;;;;5005539;28;8876;-88
2021/06/20 01:20:50;;;;;;;;;17.00;17.00;;;;;;;;5009006;28;8865;-85
2021/06/20 01:23:19;;;;;;;;;13.50;13.25;;;;;;;;5004294;28;8898;-87
2021/06/20 01:25:46;;;;;;;;;14.00;12.75;;;;;;;;5004625;28;8875;-85
2021/06/20 01:28:15;;;;;;;;;9.40;9.40;;;;;;;;5012114;28;9011;-84
2021/06/20 01:30:45;;;;;;;;;9.50;9.00;;;;;;;;5006202;28;8926;-88
2021/06/20 01:33:13;;;;;;;;;7.60;7.60;;;;;;;;5012144;28;8983;-83
2021/06/20 01:35:41;;;;;;;;;9.40;9.40;;;;;;;;5009724;28;8883;-87
2021/06/20 01:38:10;;;;;;;;;10.60;7.20;;;;;;;;5008093;28;8970;-89
2021/06/20 01:40:39;;;;;;;;;5.40;5.40;;;;;;;;5002766;28;9023;-85
2021/06/20 01:43:07;;;;;;;;;4.80;4.00;;;;;;;;5016560;28;8976;-87
2021/06/20 01:45:36;;;;;;;;;5.60;5.60;;;;;;;;5021388;28;8856;-86
2021/06/20 01:48:04;;;;;;;;;6.80;6.20;;;;;;;;5008231;28;8883;-89
2021/06/20 01:50:32;;;;;;;;;6.80;6.80;;;;;;;;4998027;28;8899;-87
2021/06/20 01:53:05;;;;;;;;;6.50;6.00;;;;;;;;5009079;28;9763;-85
2021/06/20 01:55:32;;;;;;;;;2.25;2.25;;;;;;;;5002721;28;8876;-87
2021/06/20 01:58:01;;;;;;;;;6.40;6.20;;;;;;;;4996606;28;8883;-87
2021/06/20 02:00:28;;;;;;;;;4.40;3.40;;;;;;;;4990306;28;8926;-88
2021/06/20 02:02:56;;;;;;;;;4.50;4.50;;;;;;;;5004787;28;8868;-84
2021/06/20 02:05:27;;;;;;;;;4.00;4.00;;;;;;;;5012013;28;8908;-82
2021/06/20 02:07:54;;;;;;;;;4.00;4.00;;;;;;;;5003264;28;8901;-83
2021/06/20 02:10:22;;;;;;;;;5.80;5.20;;;;;;;;5013001;28;8894;-86
2021/06/20 02:12:49;;;;;;;;;4.60;3.80;;;;;;;;5004908;28;8894;-85
2021/06/20 02:15:18;;;;;;;;;3.40;3.40;;;;;;;;5004635;28;9002;-87
2021/06/20 02:17:47;;;;;;;;;4.00;4.00;;;;;;;;5000099;28;8991;-91
2021/06/20 02:20:18;;;;;;;;;3.60;3.60;;;;;;;;5000198;28;8875;-87
2021/06/20 02:22:46;;;;;;;;;5.50;4.75;;;;;;;;5002868;28;8868;-86
2021/06/20 02:25:15;;;;;;;;;4.00;4.00;;;;;;;;5003098;28;8860;-85
2021/06/20 02:27:43;;;;;;;;;3.75;3.75;;;;;;;;5007780;28;9932;-86
2021/06/20 02:30:12;;;;;;;;;8.75;5.50;;;;;;;;5011177;28;9067;-83
2021/06/20 02:32:41;;;;;;;;;3.00;3.00;;;;;;;;5008647;28;8872;-85
2021/06/20 02:35:11;;;;;;;;;4.00;4.00;;;;;;;;5004183;28;9018;-88
2021/06/20 02:37:39;;;;;;;;;3.00;3.00;;;;;;;;5013072;28;8906;-85
2021/06/20 02:40:08;;;;;;;;;3.00;3.00;;;;;;;;5006933;28;8894;-88
2021/06/20 02:42:36;;;;;;;;;2.80;2.00;;;;;;;;5008346;28;8895;-85
2021/06/20 02:45:04;;;;;;;;;2.25;2.25;;;;;;;;5011874;28;8876;-89
2021/06/20 02:47:31;;;;;;;;;4.00;1.75;;;;;;;;5007012;28;8860;-89
2021/06/20 02:50:01;;;;;;;;;1.80;1.80;;;;;;;;5007413;28;9030;-86
2021/06/20 02:52:28;;;;;;;;;1.00;1.00;;;;;;;;5008304;28;8930;-85
2021/06/20 02:54:57;;;;;;;;;2.00;2.00;;;;;;;;5007689;28;8884;-87
2021/06/20 02:57:26;;;;;;;;;2.00;2.00;;;;;;;;5004390;28;8872;-91
2021/06/20 02:59:53;;;;;;;;;2.00;2.00;;;;;;;;5016069;28;8879;-91
2021/06/20 03:02:22;;;;;;;;;2.20;2.00;;;;;;;;5008900;28;8922;-84
2021/06/20 03:04:51;;;;;;;;;2.00;2.00;;;;;;;;5010279;28;8864;-84
2021/06/20 03:07:19;;;;;;;;;2.20;2.20;;;;;;;;5007518;28;8844;-88
2021/06/20 03:09:47;;;;;;;;;2.00;2.00;;;;;;;;5006031;28;8895;-87
2021/06/20 03:12:15;;;;;;;;;1.00;1.00;;;;;;;;5013189;28;8970;-87
2021/06/20 03:14:42;;;;;;;;;1.00;1.00;;;;;;;;5006491;28;8906;-84
2021/06/20 03:17:11;;;;;;;;;2.00;2.00;;;;;;;;5007145;28;8914;-85
2021/06/20 03:19:39;;;;;;;;;1.50;1.50;;;;;;;;5006355;28;9000;-85
2021/06/20 03:22:07;;;;;;;;;2.00;2.00;;;;;;;;5007149;28;8872;-92
2021/06/20 03:24:38;;;;;;;;;1.00;1.00;;;;;;;;5007039;28;8986;-85
2021/06/20 03:27:06;;;;;;;;;0.25;0.25;;;;;;;;5008415;28;8872;-84
2021/06/20 03:29:33;;;;;;;;;2.00;2.00;;;;;;;;5005049;28;8856;-87
2021/06/20 03:32:01;;;;;;;;;3.25;3.25;;;;;;;;5012868;28;8924;-89
2021/06/20 03:34:30;;;;;;;;;4.00;2.00;;;;;;;;5013629;28;8860;-86
2021/06/20 03:36:58;;;;;;;;;2.00;2.00;;;;;;;;5011833;28;8868;-87
2021/06/20 03:39:25;;;;;;;;;1.50;1.50;;;;;;;;5005176;28;8876;-91
2021/06/20 03:41:54;;;;;;;;;2.50;2.50;;;;;;;;5011714;28;8879;-86
2021/06/20 03:44:22;;;;;;;;;4.00;3.00;;;;;;;;5031678;28;8879;-93
2021/06/20 03:46:49;;;;;;;;;2.00;2.00;;;;;;;;5035471;28;8974;-83
2021/06/20 03:49:17;;;;;;;;;2.00;2.00;;;;;;;;5018663;28;8860;-92
2021/06/20 03:51:44;;;;;;;;;2.25;2.25;;;;;;;;5015622;28;8975;-89
2021/06/20 03:54:12;;;;;;;;;2.75;2.00;;;;;;;;5004612;28;8872;-91
2021/06/20 03:56:39;;;;;;;;;1.00;1.00;;;;;;;;5008389;28;8873;-86
2021/06/20 03:59:09;;;;;;;;;3.00;3.00;;;;;;;;5006351;28;8941;-88
2021/06/20 04:01:36;;;;;;;;;2.50;1.75;;;;;;;;5019219;28;8832;-89
2021/06/20 04:04:05;;;;;;;;;3.00;2.00;;;;;;;;5012113;28;8858;-86
2021/06/20 04:06:32;;;;;;;;;2.50;2.50;;;;;;;;5014978;28;8914;-87
2021/06/20 04:08:59;;;;;;;;;2.00;2.00;;;;;;;;5006670;28;8898;-87
2021/06/20 04:11:27;;;;;;;;;1.00;1.00;;;;;;;;5004544;28;8876;-88
2021/06/20 04:13:54;;;;;;;;;1.00;1.00;;;;;;;;5005909;28;8852;-87
2021/06/20 04:16:23;;;;;;;;;3.50;2.00;;;;;;;;5005337;28;8860;-90
2021/06/20 04:18:50;;;;;;;;;2.00;2.00;;;;;;;;5004331;28;8906;-87
2021/06/20 04:21:18;;;;;;;;;1.25;1.25;;;;;;;;5007483;28;8892;-87
2021/06/20 04:23:46;;;;;;;;;1.25;1.25;;;;;;;;5006318;28;8863;-85
2021/06/20 04:26:13;;;;;;;;;2.00;2.00;;;;;;;;5002653;28;8989;-85
2021/06/20 04:28:41;;;;;;;;;1.00;1.00;;;;;;;;5006285;28;8883;-86
2021/06/20 04:31:08;;;;;;;;;1.00;1.00;;;;;;;;5005683;28;8879;-89
2021/06/20 04:33:37;;;;;;;;;3.75;2.50;;;;;;;;5004344;28;9042;-85
2021/06/20 04:36:05;;;;;;;;;1.00;1.00;;;;;;;;5008717;28;8968;-88
2021/06/20 04:38:32;;;;;;;;;1.50;1.50;;;;;;;;5006145;28;9014;-87
2021/06/20 04:41:03;;;;;;;;;1.00;1.00;;;;;;;;5007566;28;8884;-85
2021/06/20 04:46:33;;;;;;;;;0.25;0.25;;;;;;;;4981067;28;8860;-85
2021/06/20 04:49:04;;;;;;;;;1.25;1.25;;;;;;;;5012235;28;8876;-89
2021/06/20 04:51:32;;;;;;;;;1.25;1.25;;;;;;;;5002659;28;8863;-84
2021/06/20 04:54:00;;;;;;;;;1.00;1.00;;;;;;;;5006366;28;8876;-87
2021/06/20 04:56:27;;;;;;;;;1.00;1.00;;;;;;;;5008416;28;8889;-88
2021/06/20 04:58:55;;;;;;;;;2.00;1.00;;;;;;;;5009984;28;8885;-85
2021/06/20 05:01:23;;;;;;;;;1.00;1.00;;;;;;;;4998203;28;8819;-87
2021/06/20 05:03:50;;;;;;;;;1.00;1.00;;;;;;;;4999005;28;8905;-89
2021/06/20 05:06:19;;;;;;;;;1.00;1.00;;;;;;;;5004827;28;8860;-88
2021/06/20 05:08:46;;;;;;;;;1.25;1.25;;;;;;;;5011698;28;8872;-85
2021/06/20 05:11:14;;;;;;;;;2.00;2.00;;;;;;;;5007403;28;8975;-90
2021/06/20 05:13:41;;;;;;;;;2.50;0.25;;;;;;;;5003733;28;8871;-85
2021/06/20 05:16:09;;;;;;;;;1.00;1.00;;;;;;;;5001424;28;8911;-81
2021/06/20 05:18:36;;;;;;;;;1.00;1.00;;;;;;;;5004220;28;8872;-88
2021/06/20 05:21:04;;;;;;;;;1.00;1.00;;;;;;;;5008192;28;9061;-85
2021/06/20 05:23:32;;;;;;;;;1.00;1.00;;;;;;;;5010908;28;8863;-83
2021/06/20 05:26:00;;;;;;;;;1.75;1.75;;;;;;;;5013608;28;8855;-83
2021/06/20 05:28:27;;;;;;;;;1.00;1.00;;;;;;;;5010604;28;8946;-83
2021/06/20 05:30:54;;;;;;;;;1.75;1.75;;;;;;;;5003274;28;8823;-81
2021/06/20 05:33:22;;;;;;;;;1.00;1.00;;;;;;;;5013507;28;8979;-83
2021/06/20 05:35:49;;;;;;;;;1.00;1.00;;;;;;;;5000544;28;9042;-85
2021/06/20 05:38:23;;;;;;;;;1.00;1.00;;;;;;;;5008761;28;8896;-91
2021/06/20 05:40:52;;;;;;;;;1.00;1.00;;;;;;;;4991616;28;9023;-84
2021/06/20 05:43:20;;;;;;;;;1.00;1.00;;;;;;;;5001195;28;8903;-84
2021/06/20 05:45:47;;;;;;;;;2.00;1.00;;;;;;;;5002378;28;8868;-84
2021/06/20 05:48:15;;;;;;;;;0.00;0.00;;;;;;;;5004416;28;8907;-79
2021/06/20 05:50:42;;;;;;;;;1.75;1.75;;;;;;;;5006185;28;9719;-80
2021/06/20 05:53:10;;;;;;;;;1.00;1.00;;;;;;;;5011641;28;8884;-81
2021/06/20 05:55:37;;;;;;;;;1.50;1.50;;;;;;;;5002294;28;8872;-82
2021/06/20 05:58:06;;;;;;;;;1.50;1.50;;;;;;;;5003046;28;8884;-77
2021/06/20 06:00:33;;;;;;;;;2.00;2.00;;;;;;;;5001362;28;8844;-80
2021/06/20 06:03:01;;;;;;;;;2.50;1.00;;;;;;;;5004270;28;8852;-80
2021/06/20 06:05:29;;;;;;;;;1.00;1.00;;;;;;;;5008784;28;8876;-83
2021/06/20 06:07:56;;;;;;;;;2.00;2.00;;;;;;;;5007736;28;8910;-85
2021/06/20 06:10:24;;;;;;;;;2.50;2.50;;;;;;;;5007777;28;8860;-82
2021/06/20 06:12:51;;;;;;;;;2.00;2.00;;;;;;;;5007665;28;8900;-87
2021/06/20 06:15:21;;;;;;;;;3.25;3.00;;;;;;;;5003093;28;8926;-85
2021/06/20 06:17:49;;;;;;;;;2.50;2.50;;;;;;;;5007914;28;8860;-83
2021/06/20 06:20:17;;;;;;;;;2.25;2.25;;;;;;;;5006362;28;8910;-83
2021/06/20 06:22:45;;;;;;;;;2.00;2.00;;;;;;;;5014027;28;8898;-85
2021/06/20 06:25:13;;;;;;;;;2.75;2.75;;;;;;;;5000234;28;8989;-83
2021/06/20 06:27:40;;;;;;;;;2.20;1.60;;;;;;;;5006665;28;8898;-85
2021/06/20 06:30:10;;;;;;;;;2.00;2.00;;;;;;;;5008482;28;8959;-89
2021/06/20 06:32:38;;;;;;;;;2.80;2.80;;;;;;;;5010204;28;8906;-88
2021/06/20 06:35:07;;;;;;;;;3.00;2.00;;;;;;;;5009660;28;8926;-85
2021/06/20 06:37:35;;;;;;;;;1.00;1.00;;;;;;;;5005961;28;8852;-84
2021/06/20 06:40:04;;;;;;;;;2.80;2.80;;;;;;;;5003246;28;8950;-83
2021/06/20 06:42:31;;;;;;;;;2.00;2.00;;;;;;;;5004817;28;8868;-81
2021/06/20 06:44:58;;;;;;;;;2.00;2.00;;;;;;;;5004191;28;8868;-81
2021/06/20 06:47:26;;;;;;;;;1.60;1.60;;;;;;;;5006434;28;8879;-82
2021/06/20 06:49:54;;;;;;;;;0.00;0.00;;;;;;;;5005114;28;8922;-79
2021/06/20 06:52:22;;;;;;;;;2.60;2.00;;;;;;;;5006074;28;8864;-83
2021/06/20 06:54:51;;;;;;;;;2.00;2.00;;;;;;;;5002994;28;8884;-84
2021/06/20 06:57:19;;;;;;;;;2.00;2.00;;;;;;;;5004486;28;8875;-86
2021/06/20 06:59:46;;;;;;;;;3.00;1.80;;;;;;;;5006425;28;8883;-84
2021/06/20 07:02:14;;;;;;;;;2.80;2.20;;;;;;;;5002976;28;8836;-83
2021/06/20 07:04:42;;;;;;;;;2.00;2.00;;;;;;;;5008067;28;8856;-83
2021/06/20 07:07:11;;;;;;;;;3.00;1.40;;;;;;;;5000841;28;8883;-80
2021/06/20 07:09:39;;;;;;;;;2.40;2.40;;;;;;;;5004673;28;8922;-81
2021/06/20 07:12:07;;;;;;;;;2.20;2.20;;;;;;;;5004715;28;8852;-80
2021/06/20 07:14:36;;;;;;;;;2.00;2.00;;;;;;;;5004996;28;8915;-85
2021/06/20 07:17:04;;;;;;;;;1.80;1.80;;;;;;;;5003192;28;8887;-86
2021/06/20 07:19:31;;;;;;;;;2.40;2.40;;;;;;;;5003866;28;8980;-84
2021/06/20 07:21:59;;;;;;;;;3.00;3.00;;;;;;;;4999492;28;9047;-85
2021/06/20 07:24:28;;;;;;;;;1.60;1.60;;;;;;;;5003952;28;8879;-80
2021/06/20 07:26:55;;;;;;;;;3.00;3.00;;;;;;;;5004428;28;8950;-83
2021/06/20 07:29:24;;;;;;;;;2.00;2.00;;;;;;;;5001949;28;8855;-88
2021/06/20 07:31:51;;;;;;;;;2.20;2.20;;;;;;;;5003974;28;8950;-80
2021/06/20 07:34:18;;;;;;;;;2.80;2.80;;;;;;;;5002969;28;8890;-85
2021/06/20 07:36:46;;;;;;;;;2.80;2.80;;;;;;;;5010123;28;8906;-83
2021/06/20 07:39:14;;;;;;;;;1.00;1.00;;;;;;;;5013320;28;8846;-82
2021/06/20 07:41:44;;;;;;;;;2.20;2.20;;;;;;;;5001975;28;8883;-82
2021/06/20 07:44:11;;;;;;;;;3.60;2.00;;;;;;;;5006410;28;8860;-81
2021/06/20 07:46:39;;;;;;;;;3.60;3.60;;;;;;;;5004038;28;8932;-84
2021/06/20 07:49:06;;;;;;;;;2.00;2.00;;;;;;;;4998854;28;8880;-75
2021/06/20 07:51:34;;;;;;;;;3.40;3.40;;;;;;;;5005442;28;8860;-81
2021/06/20 07:54:01;;;;;;;;;2.00;2.00;;;;;;;;5013516;28;8894;-82
2021/06/20 07:56:28;;;;;;;;;3.60;3.00;;;;;;;;5006849;28;8841;-80
2021/06/20 07:58:57;;;;;;;;;2.00;2.00;;;;;;;;5003891;28;8872;-78
2021/06/20 08:01:25;;;;;;;;;3.00;3.00;;;;;;;;4998537;28;8887;-79
2021/06/20 08:03:52;;;;;;;;;4.00;3.00;;;;;;;;5003177;28;9557;-81
2021/06/20 08:06:19;;;;;;;;;2.20;2.20;;;;;;;;4994233;28;8864;-84
2021/06/20 08:08:48;;;;;;;;;4.60;4.60;;;;;;;;5001324;28;8892;-77
2021/06/20 08:11:16;;;;;;;;;1.00;1.00;;;;;;;;5004415;28;8891;-80
2021/06/20 08:13:43;;;;;;;;;2.20;2.20;;;;;;;;5003219;28;8864;-81
2021/06/20 08:16:12;;;;;;;;;3.60;2.00;;;;;;;;4970708;28;8894;-81
2021/06/20 08:18:39;;;;;;;;;1.40;1.40;;;;;;;;4982499;28;8878;-82
2021/06/20 08:21:10;;;;;;;;;3.80;2.00;;;;;;;;4982846;28;8870;-85
2021/06/20 08:23:37;;;;;;;;;2.60;2.60;;;;;;;;4985447;28;8886;-75
2021/06/20 08:26:05;;;;;;;;;3.60;2.00;;;;;;;;4981796;28;8874;-76
2021/06/20 08:28:33;;;;;;;;;2.00;2.00;;;;;;;;4983342;28;8870;-77
2021/06/20 08:31:00;;;;;;;;;2.00;2.00;;;;;;;;4981847;28;8862;-79
2021/06/20 08:33:30;;;;;;;;;2.00;2.00;;;;;;;;4982818;28;8989;-83
2021/06/20 08:35:57;;;;;;;;;4.20;2.60;;;;;;;;4981920;28;8890;-81
2021/06/20 08:38:25;;;;;;;;;3.80;3.80;;;;;;;;4977511;28;8862;-78
2021/06/20 08:40:54;;;;;;;;;2.00;1.60;;;;;;;;4984059;28;8993;-81
2021/06/20 08:43:22;;;;;;;;;3.40;2.60;;;;;;;;4979805;28;8909;-77
2021/06/20 08:45:52;;;;;;;;;1.80;1.80;;;;;;;;4980276;28;8901;-82
2021/06/20 08:48:19;;;;;;;;;2.00;2.00;;;;;;;;4982313;28;8902;-75
2021/06/20 08:50:50;;;;;;;;;2.00;2.00;;;;;;;;4982766;28;9679;-81
2021/06/20 08:53:20;;;;;;;;;3.00;1.40;;;;;;;;4982423;28;8863;-81
2021/06/20 08:55:48;;;;;;;;;1.00;1.00;;;;;;;;4979987;28;8870;-76
2021/06/20 08:58:21;;;;;;;;;2.00;2.00;;;;;;;;4980714;28;8985;-84
2021/06/20 09:00:49;;;;;;;;;2.00;2.00;;;;;;;;4977043;28;8811;-81
2021/06/20 09:03:16;;;;;;;;;2.00;2.00;;;;;;;;4980109;28;8969;-80
2021/06/20 09:05:59;;;;;;;;;8.20;8.20;;;;;;;;4979887;28;8847;-84
2021/06/20 09:08:28;;;;;;;;;1.60;1.60;;;;;;;;4978357;28;8912;-81
2021/06/20 09:10:56;;;;;;;;;2.20;1.60;;;;;;;;4980599;28;8906;-79
2021/06/20 09:13:24;;;;;;;;;2.00;2.00;;;;;;;;4977473;28;9005;-80
2021/06/20 09:16:02;;;;;;;;;1.20;1.20;;;;;;;;4979202;28;8878;-83
2021/06/20 09:18:29;;;;;;;;;2.00;2.00;;;;;;;;4979423;28;8863;-81
2021/06/20 09:20:59;;;;;;;;;1.00;1.00;;;;;;;;4981313;28;8944;-80
2021/06/20 09:23:26;;;;;;;;;1026.00;869.00;;;;;;;;4979998;28;8933;-76
2021/06/20 09:25:59;;;;;;;;;4.80;3.80;;;;;;;;4978219;28;8937;-79
2021/06/20 09:28:33;;;;;;;;;1.80;1.80;;;;;;;;4977805;28;8972;-80
2021/06/20 09:31:02;;;;;;;;;2.20;1.40;;;;;;;;4977335;28;8837;-85
2021/06/20 09:33:31;;;;;;;;;2.00;1.20;;;;;;;;4982300;28;8898;-86
2021/06/20 09:36:00;;;;;;;;;194.25;187.50;;;;;;;;4982707;28;9001;-81
2021/06/20 09:38:30;;;;;;;;;1.80;1.80;;;;;;;;4981875;28;12420;-80
2021/06/20 09:41:06;;;;;;;;;2.00;2.00;;;;;;;;4981851;28;8880;-77
2021/06/20 09:43:34;;;;;;;;;2.20;2.20;;;;;;;;4984106;28;8904;-77
2021/06/20 09:46:02;;;;;;;;;4.60;4.60;;;;;;;;4985926;28;8882;-79
2021/06/20 09:48:31;;;;;;;;;2741.67;2014.33;;;;;;;;4983711;28;8862;-80
2021/06/20 09:51:02;;;;;;;;;180.67;169.00;;;;;;;;4986405;28;11660;-80
2021/06/20 09:53:34;;;;;;;;;21.40;21.40;;;;;;;;4987434;28;8891;-85
2021/06/20 09:56:15;;;;;;;;;2.60;2.00;;;;;;;;4984042;28;9041;-80
2021/06/20 09:58:44;;;;;;;;;0.80;0.80;;;;;;;;4988295;28;8860;-82
2021/06/20 10:01:12;;;;;;;;;92.75;90.00;;;;;;;;4987053;28;8803;-82
2021/06/20 10:03:40;;;;;;;;;8.00;8.00;;;;;;;;4986835;28;8901;-80
2021/06/20 10:06:09;;;;;;;;;125.75;121.75;;;;;;;;4992514;28;8898;-81
2021/06/20 10:08:36;;;;;;;;;2.80;2.80;;;;;;;;4986301;28;10882;-81
2021/06/20 10:11:03;;;;;;;;;0.00;0.00;;;;;;;;4981776;28;8903;-84
2021/06/20 10:13:30;;;;;;;;;4.00;2.40;;;;;;;;4986231;28;8879;-81
2021/06/20 10:16:11;;;;;;;;;1.00;1.00;;;;;;;;4985594;28;8948;-82
2021/06/20 10:18:40;;;;;;;;;10.40;9.60;;;;;;;;4988637;28;8961;-84
2021/06/20 10:21:09;;;;;;;;;15.60;14.20;;;;;;;;4992440;28;8897;-81
2021/06/20 10:23:36;;;;;;;;;4.40;4.40;;;;;;;;4990181;28;8866;-83
2021/06/20 10:26:08;;;;;;;;;5.20;4.40;;;;;;;;4992228;28;8902;-84
2021/06/20 10:28:36;;;;;;;;;1.00;1.00;;;;;;;;4991357;28;8847;-81
2021/06/20 10:31:08;;;;;;;;;0.60;0.60;;;;;;;;4994177;28;8990;-79
2021/06/20 10:33:37;;;;;;;;;0.80;0.80;;;;;;;;4992174;28;9732;-82
2021/06/20 10:36:06;;;;;;;;;0.00;0.00;;;;;;;;4989993;28;8937;-87
2021/06/20 10:38:38;;;;;;;;;1.20;1.20;;;;;;;;4992930;28;8866;-82
2021/06/20 10:41:05;;;;;;;;;0.40;0.40;;;;;;;;4989522;28;8867;-81
2021/06/20 10:43:33;;;;;;;;;1.20;0.80;;;;;;;;4990954;28;8863;-84
2021/06/20 10:46:00;;;;;;;;;3.00;1.00;;;;;;;;4989562;28;9593;-81
2021/06/20 10:48:35;;;;;;;;;1.60;1.60;;;;;;;;4989999;28;8878;-81
2021/06/20 10:51:02;;;;;;;;;1.00;1.00;;;;;;;;4999503;28;8898;-82
2021/06/20 10:53:40;;;;;;;;;0.80;0.80;;;;;;;;4985499;28;8842;-78
2021/06/20 10:56:18;;;;;;;;;0.00;0.00;;;;;;;;4986139;28;8871;-75
2021/06/20 10:58:49;;;;;;;;;1.00;0.40;;;;;;;;4984501;28;9831;-79
2021/06/20 11:01:18;;;;;;;;;1.20;1.20;;;;;;;;4983357;28;8817;-85
2021/06/20 11:03:49;;;;;;;;;2.80;1.40;;;;;;;;4986210;28;8890;-76
2021/06/20 11:06:18;;;;;;;;;0.00;0.00;;;;;;;;4989351;28;8993;-80
2021/06/20 11:08:57;;;;;;;;;0.00;0.00;;;;;;;;4989569;28;8879;-83
2021/06/20 11:11:27;;;;;;;;;0.00;0.00;;;;;;;;4991168;28;8881;-82
2021/06/20 11:14:08;;;;;;;;;1.40;1.40;;;;;;;;4990660;28;8929;-79
2021/06/20 11:16:37;;;;;;;;;0.80;0.80;;;;;;;;4986855;28;8890;-83
2021/06/20 11:19:06;;;;;;;;;0.40;0.40;;;;;;;;4987275;28;9040;-80
2021/06/20 11:21:34;;;;;;;;;3.80;3.80;;;;;;;;4986198;28;8854;-79
2021/06/20 11:24:01;;;;;;;;;4.40;4.40;;;;;;;;4987342;28;8890;-80
2021/06/20 11:26:30;;;;;;;;;1.00;1.00;;;;;;;;4989407;28;8875;-79
2021/06/20 11:29:01;;;;;;;;;1.60;1.60;;;;;;;;4987285;28;8893;-84
2021/06/20 11:31:28;;;;;;;;;0.60;0.60;;;;;;;;4986324;28;8819;-84
2021/06/20 11:33:57;;;;;;;;;2.00;2.00;;;;;;;;4988366;28;8899;-83
2021/06/20 11:36:29;;;;;;;;;5.00;5.00;;;;;;;;4982817;28;86865;-84
2021/06/20 11:38:57;;;;;;;;;1.00;1.00;;;;;;;;4987525;28;8901;-79
2021/06/20 11:41:25;;;;;;;;;0.00;0.00;;;;;;;;4984998;28;8875;-82
2021/06/20 11:44:00;;;;;;;;;0.00;0.00;;;;;;;;4987134;28;8889;-82
2021/06/20 11:46:29;;;;;;;;;1.60;0.00;;;;;;;;4989786;28;8872;-79
2021/06/20 11:48:59;;;;;;;;;0.20;0.20;;;;;;;;4990597;28;8965;-83
2021/06/20 11:51:35;;;;;;;;;0.40;0.40;;;;;;;;4988884;28;9002;-80
2021/06/20 11:54:13;;;;;;;;;0.00;0.00;;;;;;;;4987907;28;8894;-80
2021/06/20 11:56:43;;;;;;;;;3.00;1.00;;;;;;;;4987980;28;9688;-80
2021/06/20 11:59:13;;;;;;;;;1.40;1.40;;;;;;;;4987948;28;8863;-84
2021/06/20 12:01:45;;;;;;;;;1.00;1.00;;;;;;;;4988671;28;8819;-83
2021/06/20 12:04:14;;;;;;;;;0.40;0.40;;;;;;;;4982326;28;8859;-82
2021/06/20 12:06:42;;;;;;;;;2.60;2.60;;;;;;;;4984559;28;9630;-79
2021/06/20 12:09:11;;;;;;;;;0.20;0.20;;;;;;;;4985542;28;8985;-80
2021/06/20 12:11:40;;;;;;;;;1.20;1.20;;;;;;;;4981597;28;8980;-77
2021/06/20 12:14:07;;;;;;;;;0.00;0.00;;;;;;;;4987640;28;8878;-78
2021/06/20 12:16:47;;;;;;;;;0.80;0.80;;;;;;;;4987574;28;8843;-83
2021/06/20 12:19:16;;;;;;;;;0.00;0.00;;;;;;;;4986700;28;8917;-81
2021/06/20 12:21:44;;;;;;;;;0.00;0.00;;;;;;;;4989711;28;8863;-87
2021/06/20 12:24:15;;;;;;;;;0.00;0.00;;;;;;;;4985341;28;8911;-77
2021/06/20 12:26:49;;;;;;;;;4.00;2.00;;;;;;;;4991414;28;9629;-85
2021/06/20 12:29:17;;;;;;;;;1.00;1.00;;;;;;;;4987312;28;8873;-87
2021/06/20 12:31:57;;;;;;;;;0.80;0.80;;;;;;;;4988516;28;8831;-87
2021/06/20 12:34:25;;;;;;;;;1.00;1.00;;;;;;;;4987837;28;8986;-81
2021/06/20 12:36:59;;;;;;;;;2.00;2.00;;;;;;;;4987537;28;8875;-81
2021/06/20 12:39:27;;;;;;;;;0.20;0.20;;;;;;;;4985685;28;8902;-84
2021/06/20 12:42:00;;;;;;;;;1.40;1.40;;;;;;;;4984431;28;8926;-81
2021/06/20 12:44:42;;;;;;;;;1.00;1.00;;;;;;;;4983527;28;8867;-81
2021/06/20 12:47:11;;;;;;;;;0.80;0.80;;;;;;;;4982310;28;8897;-81
2021/06/20 12:49:39;;;;;;;;;0.80;0.80;;;;;;;;4984151;28;8870;-79
2021/06/20 12:52:07;;;;;;;;;1.60;1.60;;;;;;;;4983765;28;8834;-78
2021/06/20 12:54:54;;;;;;;;;0.20;0.20;;;;;;;;4985291;28;8901;-84
2021/06/20 12:57:23;;;;;;;;;0.80;0.80;;;;;;;;4985811;28;9379;-83
2021/06/20 12:59:53;;;;;;;;;0.00;0.00;;;;;;;;4990237;28;8874;-84
2021/06/20 13:02:28;;;;;;;;;0.00;0.00;;;;;;;;4988475;28;8823;-81
2021/06/20 13:04:56;;;;;;;;;0.00;0.00;;;;;;;;4985623;28;8846;-82
2021/06/20 13:07:37;;;;;;;;;0.40;0.00;;;;;;;;4984776;28;8863;-84
2021/06/20 13:10:07;;;;;;;;;1.00;1.00;;;;;;;;4986441;28;8974;-85
2021/06/20 13:12:35;;;;;;;;;0.80;0.80;;;;;;;;4983094;28;8866;-84
2021/06/20 13:15:03;;;;;;;;;0.00;0.00;;;;;;;;4985356;28;8890;-86
2021/06/20 13:17:32;;;;;;;;;0.00;0.00;;;;;;;;4983330;28;8866;-82
2021/06/20 13:19:59;;;;;;;;;1.40;0.00;;;;;;;;4984737;28;8886;-83
2021/06/20 13:22:26;;;;;;;;;1.20;1.20;;;;;;;;4980929;28;8870;-84
2021/06/20 13:24:53;;;;;;;;;0.00;0.00;;;;;;;;4983725;28;8894;-83
2021/06/20 13:27:21;;;;;;;;;0.00;0.00;;;;;;;;4985301;28;8874;-87
2021/06/20 13:29:48;;;;;;;;;1.40;1.00;;;;;;;;4984256;28;8900;-83
2021/06/20 13:32:15;;;;;;;;;2.20;2.20;;;;;;;;4984490;28;8827;-84
2021/06/20 13:34:44;;;;;;;;;0.80;0.80;;;;;;;;4984919;28;8905;-84
2021/06/20 13:37:12;;;;;;;;;0.80;0.80;;;;;;;;4984478;28;8879;-84
2021/06/20 13:39:40;;;;;;;;;1.80;1.80;;;;;;;;4983362;28;8859;-83
2021/06/20 13:42:08;;;;;;;;;2.60;1.00;;;;;;;;4984399;28;9001;-80
2021/06/20 13:44:36;;;;;;;;;1.00;1.00;;;;;;;;4985826;28;8871;-84
2021/06/20 13:47:03;;;;;;;;;2.00;2.00;;;;;;;;4984030;28;8891;-81
2021/06/20 13:49:31;;;;;;;;;1.00;1.00;;;;;;;;4987354;28;9756;-85
2021/06/20 13:52:00;;;;;;;;;2.40;1.00;;;;;;;;4977439;28;8862;-82
2021/06/20 13:54:27;;;;;;;;;0.80;0.80;;;;;;;;4985670;28;8894;-80
2021/06/20 13:56:56;;;;;;;;;1.00;1.00;;;;;;;;4984898;28;9646;-83
2021/06/20 13:59:24;;;;;;;;;2.80;1.00;;;;;;;;4984659;28;8952;-86
2021/06/20 14:01:52;;;;;;;;;1.00;1.00;;;;;;;;4984680;28;8795;-86
2021/06/20 14:04:20;;;;;;;;;1.00;1.00;;;;;;;;4976899;28;9652;-87
2021/06/20 14:06:47;;;;;;;;;0.60;0.00;;;;;;;;4976408;28;8878;-83
2021/06/20 14:09:16;;;;;;;;;1.00;1.00;;;;;;;;4980616;28;8878;-87
2021/06/20 14:11:45;;;;;;;;;0.80;0.80;;;;;;;;4984497;28;8916;-81
2021/06/20 14:14:13;;;;;;;;;2.00;2.00;;;;;;;;4983754;28;9637;-83
2021/06/20 14:16:40;;;;;;;;;1.80;1.80;;;;;;;;4984283;28;8893;-83
2021/06/20 14:19:08;;;;;;;;;1.00;1.00;;;;;;;;4982661;28;8861;-85
2021/06/20 14:21:35;;;;;;;;;1.40;1.40;;;;;;;;4976768;28;9349;-88
2021/06/20 14:24:03;;;;;;;;;1.00;1.00;;;;;;;;4984168;28;8905;-86
2021/06/20 14:26:32;;;;;;;;;2.00;1.00;;;;;;;;4984083;28;8882;-86
2021/06/20 14:28:59;;;;;;;;;1.00;1.00;;;;;;;;4990368;28;8890;-83
2021/06/20 14:31:26;;;;;;;;;1.00;1.00;;;;;;;;4992146;28;9162;-86
2021/06/20 14:33:54;;;;;;;;;0.60;0.60;;;;;;;;4987770;28;8876;-81
2021/06/20 14:36:21;;;;;;;;;1.60;0.80;;;;;;;;4988411;28;8866;-85
2021/06/20 14:38:49;;;;;;;;;1.00;1.00;;;;;;;;4977950;28;8889;-84
2021/06/20 14:41:16;;;;;;;;;1.00;1.00;;;;;;;;4986738;28;8993;-83
2021/06/20 14:43:45;;;;;;;;;1.00;1.00;;;;;;;;4976945;28;8921;-83
2021/06/20 14:46:13;;;;;;;;;2.20;2.20;;;;;;;;4984491;28;8886;-84
2021/06/20 14:48:40;;;;;;;;;1.00;1.00;;;;;;;;4988094;28;8922;-78
2021/06/20 14:51:07;;;;;;;;;1.00;1.00;;;;;;;;4991364;28;8985;-86
2021/06/20 14:53:35;;;;;;;;;0.00;0.00;;;;;;;;4991552;28;8985;-82
2021/06/20 14:56:02;;;;;;;;;1.60;1.00;;;;;;;;4987432;28;8883;-82
2021/06/20 14:58:29;;;;;;;;;0.40;0.40;;;;;;;;4986672;28;8908;-88
2021/06/20 15:00:58;;;;;;;;;0.60;0.60;;;;;;;;4984951;28;8807;-87
2021/06/20 15:03:27;;;;;;;;;1.00;1.00;;;;;;;;4987882;28;8850;-83
2021/06/20 15:05:55;;;;;;;;;1.00;1.00;;;;;;;;4981917;28;8897;-87